createdAt,value
2022-11-08T00:00:57.194Z,8.73
2022-11-08T00:02:01.084Z,8.72
2022-11-08T00:03:05.014Z,8.72
2022-11-08T00:04:13.431Z,8.72
2022-11-08T00:05:36.153Z,8.72
2022-11-08T00:07:00.403Z,8.72
2022-11-08T00:08:23.968Z,8.68
2022-11-08T00:09:47.405Z,8.67
2022-11-08T00:11:09.738Z,8.66
2022-11-08T00:12:32.936Z,8.63
2022-11-08T00:13:55.424Z,8.62
2022-11-08T00:14:59.532Z,8.62
2022-11-08T00:16:03.454Z,8.61
2022-11-08T00:17:07.368Z,8.61
2022-11-08T00:18:11.060Z,8.61
2022-11-08T00:19:14.800Z,8.60
2022-11-08T00:20:18.623Z,8.56
2022-11-08T00:21:22.268Z,8.56
2022-11-08T00:22:26.160Z,8.59
2022-11-08T00:23:30.618Z,8.55
2022-11-08T00:24:35.824Z,8.54
2022-11-08T00:25:39.649Z,8.54
2022-11-08T00:26:43.319Z,8.54
2022-11-08T00:27:51.171Z,8.55
2022-11-08T00:28:54.917Z,8.53
2022-11-08T00:29:58.595Z,8.54
2022-11-08T00:31:06.959Z,8.50
2022-11-08T00:32:21.355Z,8.50
2022-11-08T00:33:24.934Z,8.48
2022-11-08T00:34:28.898Z,8.48
2022-11-08T00:35:32.774Z,8.48
2022-11-08T00:36:36.593Z,8.41
2022-11-08T00:37:40.342Z,8.42
2022-11-08T00:38:44.728Z,8.43
2022-11-08T00:39:49.184Z,8.42
2022-11-08T00:40:53.075Z,8.41
2022-11-08T00:41:57.208Z,8.40
2022-11-08T00:43:00.949Z,8.42
2022-11-08T00:44:05.211Z,8.40
2022-11-08T00:45:09.910Z,8.41
2022-11-08T00:46:13.464Z,8.38
2022-11-08T00:47:17.355Z,8.35
2022-11-08T00:48:21.055Z,8.36
2022-11-08T00:49:24.924Z,8.35
2022-11-08T00:50:28.902Z,8.37
2022-11-08T00:51:33.219Z,8.34
2022-11-08T00:52:37.072Z,8.33
2022-11-08T00:53:41.806Z,8.32
2022-11-08T00:54:46.142Z,8.32
2022-11-08T00:55:59.017Z,8.33
2022-11-08T00:57:03.048Z,8.34
2022-11-08T00:58:07.239Z,8.35
2022-11-08T00:59:13.141Z,8.30
2022-11-08T01:00:20.341Z,8.33
2022-11-08T01:01:25.425Z,8.28
2022-11-08T01:02:29.559Z,8.29
2022-11-08T01:03:33.649Z,8.29
2022-11-08T01:04:37.420Z,8.26
2022-11-08T01:05:41.762Z,8.26
2022-11-08T01:06:46.866Z,8.26
2022-11-08T01:07:50.555Z,8.23
2022-11-08T01:08:56.217Z,8.23
2022-11-08T01:09:59.946Z,8.22
2022-11-08T01:11:08.856Z,8.21
2022-11-08T01:12:13.453Z,8.19
2022-11-08T01:13:21.540Z,8.18
2022-11-08T01:14:25.988Z,8.19
2022-11-08T01:15:40.769Z,8.17
2022-11-08T01:16:45.399Z,8.18
2022-11-08T01:17:50.584Z,8.17
2022-11-08T01:18:57.289Z,8.14
2022-11-08T01:20:01.189Z,8.15
2022-11-08T01:21:06.233Z,8.15
2022-11-08T01:22:10.070Z,8.14
2022-11-08T01:23:15.687Z,8.13
2022-11-08T01:24:21.624Z,8.11
2022-11-08T01:25:25.822Z,8.11
2022-11-08T01:26:31.090Z,8.11
2022-11-08T01:27:34.958Z,8.10
2022-11-08T01:28:40.084Z,8.09
2022-11-08T01:29:44.258Z,8.08
2022-11-08T01:30:48.292Z,8.08
2022-11-08T01:31:52.080Z,8.05
2022-11-08T01:32:56.213Z,8.04
2022-11-08T01:34:01.991Z,8.06
2022-11-08T01:35:06.581Z,8.06
2022-11-08T01:36:16.784Z,8.06
2022-11-08T01:37:20.870Z,8.07
2022-11-08T01:38:25.271Z,8.05
2022-11-08T01:39:33.270Z,8.03
2022-11-08T01:40:48.395Z,8.02
2022-11-08T01:41:52.704Z,7.98
2022-11-08T01:42:57.504Z,7.98
2022-11-08T01:44:01.343Z,7.98
2022-11-08T01:45:11.923Z,7.99
2022-11-08T01:46:39.771Z,8.00
2022-11-08T01:47:43.734Z,8.00
2022-11-08T01:49:19.084Z,7.98
2022-11-08T01:50:22.970Z,7.98
2022-11-08T01:51:36.440Z,7.97
2022-11-08T01:52:54.713Z,7.96
2022-11-08T01:54:01.834Z,7.96
2022-11-08T01:55:14.686Z,7.98
2022-11-08T01:56:21.023Z,7.97
2022-11-08T01:57:44.990Z,7.97
2022-11-08T01:58:54.392Z,7.97
2022-11-08T02:00:03.943Z,7.96
2022-11-08T02:01:08.277Z,7.98
2022-11-08T02:02:13.457Z,7.97
2022-11-08T02:03:20.322Z,7.97
2022-11-08T02:04:24.775Z,7.97
2022-11-08T02:05:31.496Z,7.95
2022-11-08T02:06:39.441Z,7.95
2022-11-08T02:07:44.112Z,7.93
2022-11-08T02:08:48.224Z,7.94
2022-11-08T02:09:52.116Z,7.98
2022-11-08T02:10:56.121Z,7.95
2022-11-08T02:12:00.216Z,7.95
2022-11-08T02:13:14.239Z,7.95
2022-11-08T02:14:18.775Z,7.92
2022-11-08T02:15:25.970Z,7.94
2022-11-08T02:16:29.698Z,7.94
2022-11-08T02:17:33.541Z,7.93
2022-11-08T02:18:38.390Z,7.92
2022-11-08T02:19:49.966Z,7.89
2022-11-08T02:21:15.367Z,7.92
2022-11-08T02:22:50.421Z,7.88
2022-11-08T02:24:07.198Z,7.88
2022-11-08T02:25:12.218Z,7.87
2022-11-08T02:26:20.684Z,7.85
2022-11-08T02:27:26.026Z,7.84
2022-11-08T02:28:30.030Z,7.76
2022-11-08T02:29:36.493Z,7.77
2022-11-08T02:30:41.005Z,7.79
2022-11-08T02:31:44.924Z,7.76
2022-11-08T02:32:49.144Z,7.78
2022-11-08T02:33:53.559Z,7.71
2022-11-08T02:34:59.625Z,7.69
2022-11-08T02:36:05.273Z,7.70
2022-11-08T02:37:10.515Z,7.71
2022-11-08T02:38:14.916Z,7.70
2022-11-08T02:39:19.503Z,7.70
2022-11-08T02:40:23.373Z,7.71
2022-11-08T02:41:27.811Z,7.70
2022-11-08T02:42:31.918Z,7.69
2022-11-08T02:43:35.629Z,7.71
2022-11-08T02:44:41.798Z,7.68
2022-11-08T02:45:46.431Z,7.67
2022-11-08T02:46:50.159Z,7.67
2022-11-08T02:47:54.460Z,7.67
2022-11-08T02:48:58.315Z,7.68
2022-11-08T02:50:07.730Z,7.66
2022-11-08T02:51:11.573Z,7.64
2022-11-08T02:52:18.427Z,7.64
2022-11-08T02:53:25.376Z,7.61
2022-11-08T02:54:31.448Z,7.63
2022-11-08T02:55:37.005Z,7.63
2022-11-08T02:56:41.388Z,7.63
2022-11-08T02:57:46.596Z,7.62
2022-11-08T02:58:52.178Z,7.61
2022-11-08T02:59:57.414Z,7.61
2022-11-08T03:01:02.653Z,7.62
2022-11-08T03:02:08.843Z,7.60
2022-11-08T03:03:13.053Z,7.61
2022-11-08T03:04:17.060Z,7.61
2022-11-08T03:05:21.927Z,7.60
2022-11-08T03:06:26.449Z,7.59
2022-11-08T03:07:30.910Z,7.59
2022-11-08T03:08:35.601Z,7.59
2022-11-08T03:09:39.879Z,7.60
2022-11-08T03:10:44.228Z,7.60
2022-11-08T03:11:48.243Z,7.61
2022-11-08T03:13:04.717Z,7.60
2022-11-08T03:14:09.673Z,7.60
2022-11-08T03:15:15.332Z,7.61
2022-11-08T03:16:19.135Z,7.58
2022-11-08T03:17:23.240Z,7.59
2022-11-08T03:18:27.288Z,7.59
2022-11-08T03:19:31.186Z,7.61
2022-11-08T03:20:36.157Z,7.60
2022-11-08T03:21:40.211Z,7.61
2022-11-08T03:22:45.029Z,7.61
2022-11-08T03:23:49.135Z,7.60
2022-11-08T03:24:53.845Z,7.60
2022-11-08T03:26:01.234Z,7.59
2022-11-08T03:27:06.335Z,7.60
2022-11-08T03:28:11.055Z,7.57
2022-11-08T03:29:14.834Z,7.58
2022-11-08T03:30:18.948Z,7.55
2022-11-08T03:31:23.786Z,7.58
2022-11-08T03:32:28.540Z,7.55
2022-11-08T03:33:32.252Z,7.53
2022-11-08T03:34:36.817Z,7.56
2022-11-08T03:35:41.029Z,7.52
2022-11-08T03:36:45.680Z,7.51
2022-11-08T03:37:57.779Z,7.51
2022-11-08T03:39:02.082Z,7.49
2022-11-08T03:40:06.961Z,7.49
2022-11-08T03:41:11.194Z,7.47
2022-11-08T03:42:16.124Z,7.44
2022-11-08T03:43:20.880Z,7.41
2022-11-08T03:44:25.719Z,7.40
2022-11-08T03:45:29.914Z,7.39
2022-11-08T03:46:33.831Z,7.35
2022-11-08T03:47:44.483Z,7.33
2022-11-08T03:48:48.599Z,7.36
2022-11-08T03:49:53.210Z,7.33
2022-11-08T03:50:57.179Z,7.34
2022-11-08T03:52:01.630Z,7.31
2022-11-08T03:53:05.577Z,7.30
2022-11-08T03:54:11.042Z,7.31
2022-11-08T03:55:17.280Z,7.31
2022-11-08T03:56:22.186Z,7.31
2022-11-08T03:57:26.254Z,7.26
2022-11-08T03:58:30.345Z,7.26
2022-11-08T03:59:34.333Z,7.26
2022-11-08T04:00:38.313Z,7.27
2022-11-08T04:01:42.789Z,7.26
2022-11-08T04:02:48.124Z,7.25
2022-11-08T04:03:52.307Z,7.27
2022-11-08T04:04:56.474Z,7.25
2022-11-08T04:06:02.537Z,7.23
2022-11-08T04:07:06.451Z,7.21
2022-11-08T04:08:10.651Z,7.22
2022-11-08T04:09:18.978Z,7.22
2022-11-08T04:10:25.248Z,7.18
2022-11-08T04:11:47.735Z,7.19
2022-11-08T04:13:10.211Z,7.17
2022-11-08T04:14:32.650Z,7.16
2022-11-08T04:15:36.537Z,7.14
2022-11-08T04:16:40.210Z,7.15
2022-11-08T04:18:09.065Z,7.15
2022-11-08T04:19:31.290Z,7.14
2022-11-08T04:21:01.935Z,7.14
2022-11-08T04:22:07.928Z,7.11
2022-11-08T04:23:11.768Z,7.13
2022-11-08T04:24:15.739Z,7.10
2022-11-08T04:25:19.348Z,7.10
2022-11-08T04:26:23.455Z,7.09
2022-11-08T04:27:27.584Z,7.12
2022-11-08T04:28:36.476Z,7.10
2022-11-08T04:29:40.327Z,7.12
2022-11-08T04:30:44.546Z,7.11
2022-11-08T04:31:48.424Z,7.10
2022-11-08T04:32:52.450Z,7.10
2022-11-08T04:33:57.081Z,7.09
2022-11-08T04:35:00.758Z,7.11
2022-11-08T04:36:09.199Z,7.10
2022-11-08T04:37:13.348Z,7.08
2022-11-08T04:38:18.863Z,7.08
2022-11-08T04:39:23.377Z,7.08
2022-11-08T04:40:30.640Z,7.07
2022-11-08T04:41:35.448Z,7.07
2022-11-08T04:42:45.341Z,7.05
2022-11-08T04:43:50.784Z,7.05
2022-11-08T04:44:55.497Z,7.04
2022-11-08T04:46:10.950Z,7.03
2022-11-08T04:47:14.541Z,7.03
2022-11-08T04:48:19.102Z,7.00
2022-11-08T04:49:23.167Z,6.98
2022-11-08T04:50:27.314Z,7.00
2022-11-08T04:51:34.179Z,6.95
2022-11-08T04:52:38.547Z,6.95
2022-11-08T04:53:43.160Z,6.99
2022-11-08T04:54:47.853Z,6.99
2022-11-08T04:55:52.865Z,6.99
2022-11-08T04:56:57.066Z,6.97
2022-11-08T04:58:00.973Z,6.95
2022-11-08T04:59:09.464Z,6.94
2022-11-08T05:00:17.311Z,6.96
2022-11-08T05:01:30.567Z,6.95
2022-11-08T05:02:37.534Z,6.95
2022-11-08T05:03:42.076Z,6.96
2022-11-08T05:04:46.864Z,6.93
2022-11-08T05:05:50.931Z,6.94
2022-11-08T05:06:55.292Z,6.93
2022-11-08T05:07:59.202Z,6.95
2022-11-08T05:09:03.842Z,6.91
2022-11-08T05:10:08.487Z,6.89
2022-11-08T05:11:19.910Z,6.90
2022-11-08T05:12:24.093Z,6.89
2022-11-08T05:13:27.892Z,6.85
2022-11-08T05:14:32.204Z,6.89
2022-11-08T05:15:37.430Z,6.88
2022-11-08T05:16:41.325Z,6.87
2022-11-08T05:17:45.416Z,6.85
2022-11-08T05:18:50.357Z,6.85
2022-11-08T05:20:12.494Z,6.85
2022-11-08T05:21:38.713Z,6.82
2022-11-08T05:23:01.370Z,6.83
2022-11-08T05:24:08.528Z,6.82
2022-11-08T05:25:12.891Z,6.79
2022-11-08T05:26:20.601Z,6.81
2022-11-08T05:27:25.027Z,6.78
2022-11-08T05:28:29.356Z,6.77
2022-11-08T05:29:34.847Z,6.80
2022-11-08T05:30:41.409Z,6.78
2022-11-08T05:31:45.842Z,6.78
2022-11-08T05:32:53.217Z,6.76
2022-11-08T05:33:57.353Z,6.78
2022-11-08T05:35:02.356Z,6.80
2022-11-08T05:36:13.719Z,6.82
2022-11-08T05:37:19.051Z,6.81
2022-11-08T05:38:23.879Z,6.84
2022-11-08T05:39:32.033Z,6.82
2022-11-08T05:40:36.477Z,6.83
2022-11-08T05:41:40.833Z,6.83
2022-11-08T05:42:44.892Z,6.85
2022-11-08T05:43:52.744Z,6.84
2022-11-08T05:44:58.927Z,6.86
2022-11-08T05:46:03.767Z,6.85
2022-11-08T05:47:07.550Z,6.86
2022-11-08T05:48:11.733Z,6.86
2022-11-08T05:49:15.596Z,6.83
2022-11-08T05:50:19.730Z,6.84
2022-11-08T05:51:23.547Z,6.84
2022-11-08T05:52:27.842Z,6.87
2022-11-08T05:53:32.422Z,6.86
2022-11-08T05:54:36.568Z,6.89
2022-11-08T05:55:40.800Z,6.87
2022-11-08T05:56:44.779Z,6.89
2022-11-08T05:57:49.682Z,6.89
2022-11-08T05:58:54.239Z,6.88
2022-11-08T05:59:58.293Z,6.86
2022-11-08T06:01:03.960Z,6.89
2022-11-08T06:02:08.612Z,6.89
2022-11-08T06:03:12.773Z,6.91
2022-11-08T06:04:16.515Z,6.93
2022-11-08T06:05:20.776Z,6.89
2022-11-08T06:06:24.905Z,6.88
2022-11-08T06:07:29.535Z,6.91
2022-11-08T06:08:33.804Z,6.94
2022-11-08T06:09:37.485Z,6.95
2022-11-08T06:10:41.545Z,6.96
2022-11-08T06:11:45.292Z,6.96
2022-11-08T06:12:48.982Z,6.98
2022-11-08T06:13:54.642Z,6.99
2022-11-08T06:14:58.514Z,7.00
2022-11-08T06:16:08.682Z,7.00
2022-11-08T06:17:12.792Z,7.02
2022-11-08T06:18:17.066Z,7.01
2022-11-08T06:19:21.532Z,6.98
2022-11-08T06:20:26.518Z,7.02
2022-11-08T06:21:30.499Z,7.03
2022-11-08T06:22:36.110Z,7.05
2022-11-08T06:23:42.501Z,7.06
2022-11-08T06:24:46.275Z,7.08
2022-11-08T06:25:50.807Z,7.08
2022-11-08T06:26:54.962Z,7.09
2022-11-08T06:28:01.504Z,7.09
2022-11-08T06:29:07.646Z,7.13
2022-11-08T06:30:13.085Z,7.13
2022-11-08T06:31:17.158Z,7.12
2022-11-08T06:32:22.701Z,7.15
2022-11-08T06:33:27.498Z,7.17
2022-11-08T06:34:31.440Z,7.19
2022-11-08T06:35:37.679Z,7.20
2022-11-08T06:36:42.630Z,7.20
2022-11-08T06:37:47.021Z,7.21
2022-11-08T06:38:56.028Z,7.23
2022-11-08T06:40:00.763Z,7.25
2022-11-08T06:41:05.577Z,7.27
2022-11-08T06:42:11.552Z,7.27
2022-11-08T06:43:19.617Z,7.29
2022-11-08T06:44:24.653Z,7.28
2022-11-08T06:45:29.261Z,7.26
2022-11-08T06:46:34.797Z,7.32
2022-11-08T06:47:38.998Z,7.30
2022-11-08T06:48:43.722Z,7.31
2022-11-08T06:49:49.250Z,7.26
2022-11-08T06:50:53.684Z,7.36
2022-11-08T06:51:57.817Z,7.39
2022-11-08T06:53:08.715Z,7.39
2022-11-08T06:54:17.707Z,7.40
2022-11-08T06:55:22.666Z,7.44
2022-11-08T06:56:27.788Z,7.50
2022-11-08T06:57:31.699Z,7.54
2022-11-08T06:58:36.203Z,7.55
2022-11-08T06:59:43.435Z,7.58
2022-11-08T07:00:50.987Z,7.58
2022-11-08T07:01:58.853Z,7.63
2022-11-08T07:03:05.014Z,7.60
2022-11-08T07:04:08.868Z,7.62
2022-11-08T07:05:16.299Z,7.67
2022-11-08T07:06:21.201Z,7.70
2022-11-08T07:07:28.138Z,7.77
2022-11-08T07:08:34.956Z,7.81
2022-11-08T07:09:39.752Z,7.82
2022-11-08T07:10:45.178Z,7.87
2022-11-08T07:11:50.006Z,7.89
2022-11-08T07:13:12.357Z,7.94
2022-11-08T07:14:20.201Z,7.96
2022-11-08T07:16:49.704Z,8.05
2022-11-08T07:17:55.790Z,8.06
2022-11-08T07:19:01.111Z,8.09
2022-11-08T07:20:06.262Z,8.13
2022-11-08T07:21:10.584Z,8.13
2022-11-08T07:22:15.492Z,8.17
2022-11-08T07:23:20.391Z,8.20
2022-11-08T07:24:24.934Z,8.24
2022-11-08T07:25:31.414Z,8.28
2022-11-08T07:26:35.548Z,8.29
2022-11-08T07:27:41.933Z,8.36
2022-11-08T07:28:46.662Z,8.40
2022-11-08T07:29:51.167Z,8.42
2022-11-08T07:31:01.799Z,8.46
2022-11-08T07:32:09.370Z,8.50
2022-11-08T07:33:16.476Z,8.55
2022-11-08T07:34:20.976Z,8.60
2022-11-08T07:35:28.328Z,8.64
2022-11-08T07:36:32.426Z,8.68
2022-11-08T07:37:36.549Z,8.71
2022-11-08T07:38:41.005Z,8.77
2022-11-08T07:39:45.448Z,8.82
2022-11-08T07:40:50.179Z,8.87
2022-11-08T07:41:54.495Z,8.94
2022-11-08T07:43:15.973Z,9.00
2022-11-08T07:44:20.232Z,9.07
2022-11-08T07:45:25.120Z,9.17
2022-11-08T07:46:29.048Z,9.28
2022-11-08T07:47:33.980Z,9.40
2022-11-08T07:48:37.840Z,9.54
2022-11-08T07:49:42.037Z,9.73
2022-11-08T07:50:47.965Z,9.97
2022-11-08T07:51:52.710Z,10.25
2022-11-08T07:52:57.159Z,10.67
2022-11-08T07:54:03.162Z,11.30
2022-11-08T07:55:09.119Z,12.20
2022-11-08T07:56:13.317Z,12.96
2022-11-08T07:57:17.577Z,13.95
2022-11-08T07:58:21.622Z,14.79
2022-11-08T07:59:25.950Z,15.66
2022-11-08T08:00:37.504Z,16.57
2022-11-08T08:01:41.578Z,17.31
2022-11-08T08:02:45.995Z,17.98
2022-11-08T08:03:49.883Z,18.62
2022-11-08T08:04:54.126Z,19.21
2022-11-08T08:06:01.044Z,19.76
2022-11-08T08:07:05.889Z,20.26
2022-11-08T08:08:12.673Z,20.64
2022-11-08T08:09:16.478Z,21.11
2022-11-08T08:10:20.342Z,21.53
2022-11-08T08:11:28.225Z,21.92
2022-11-08T08:12:34.646Z,22.31
2022-11-08T08:13:38.336Z,22.66
2022-11-08T08:14:42.447Z,23.01
2022-11-08T08:15:46.383Z,23.31
2022-11-08T08:16:51.310Z,23.64
2022-11-08T08:17:56.532Z,23.96
2022-11-08T08:19:00.259Z,24.22
2022-11-08T08:20:04.645Z,24.44
2022-11-08T08:21:09.055Z,24.67
2022-11-08T08:22:13.393Z,24.92
2022-11-08T08:23:17.879Z,25.00
2022-11-08T08:24:22.527Z,25.38
2022-11-08T08:25:29.351Z,25.64
2022-11-08T08:26:34.135Z,25.84
2022-11-08T08:27:38.178Z,26.09
2022-11-08T08:28:43.187Z,26.29
2022-11-08T08:29:47.460Z,26.39
2022-11-08T08:30:51.511Z,26.59
2022-11-08T08:31:56.749Z,26.76
2022-11-08T08:33:27.447Z,26.96
2022-11-08T08:34:32.635Z,27.16
2022-11-08T08:35:38.792Z,27.32
2022-11-08T08:36:43.407Z,27.39
2022-11-08T08:37:47.588Z,27.39
2022-11-08T08:38:52.099Z,27.34
2022-11-08T08:39:56.378Z,27.30
2022-11-08T08:41:02.276Z,27.25
2022-11-08T08:42:07.096Z,27.09
2022-11-08T08:43:11.710Z,27.12
2022-11-08T08:44:16.252Z,27.19
2022-11-08T08:45:20.803Z,27.27
2022-11-08T08:46:25.359Z,27.42
2022-11-08T08:47:30.576Z,27.57
2022-11-08T08:48:36.117Z,27.72
2022-11-08T08:49:41.108Z,27.88
2022-11-08T08:50:45.505Z,27.99
2022-11-08T08:51:52.714Z,28.14
2022-11-08T08:53:02.313Z,28.32
2022-11-08T08:54:06.961Z,28.35
2022-11-08T08:55:10.796Z,28.47
2022-11-08T08:56:14.528Z,28.40
2022-11-08T08:57:18.636Z,28.49
2022-11-08T08:58:23.573Z,28.46
2022-11-08T09:02:21.789Z,28.68
2022-11-08T09:03:25.953Z,28.65
2022-11-08T09:04:30.240Z,28.51
2022-11-08T09:05:36.105Z,28.22
2022-11-08T09:06:40.267Z,27.79
2022-11-08T09:07:44.692Z,27.44
2022-11-08T09:08:48.607Z,27.00
2022-11-08T09:09:53.923Z,26.46
2022-11-08T09:11:01.314Z,25.80
2022-11-08T09:12:11.825Z,25.33
2022-11-08T09:13:19.499Z,24.75
2022-11-08T09:14:24.228Z,24.32
2022-11-08T09:15:28.286Z,23.80
2022-11-08T09:16:34.523Z,23.44
2022-11-08T09:17:38.767Z,23.08
2022-11-08T09:18:42.719Z,22.57
2022-11-08T09:19:47.609Z,22.25
2022-11-08T09:20:52.997Z,21.93
2022-11-08T09:21:57.249Z,21.68
2022-11-08T09:23:04.954Z,21.36
2022-11-08T09:24:08.907Z,20.93
2022-11-08T09:25:12.575Z,20.70
2022-11-08T09:26:16.837Z,20.37
2022-11-08T09:27:21.286Z,20.10
2022-11-08T09:28:30.926Z,19.85
2022-11-08T09:29:35.386Z,19.67
2022-11-08T09:30:39.878Z,19.53
2022-11-08T09:31:45.839Z,19.50
2022-11-08T09:33:00.728Z,19.45
2022-11-08T09:34:06.178Z,19.35
2022-11-08T09:35:10.817Z,19.30
2022-11-08T09:36:15.302Z,19.17
2022-11-08T09:37:19.424Z,19.09
2022-11-08T09:38:23.864Z,19.07
2022-11-08T09:39:29.159Z,19.01
2022-11-08T09:40:51.653Z,19.00
2022-11-08T09:42:54.928Z,18.84
2022-11-08T09:44:17.318Z,18.78
2022-11-08T09:45:43.574Z,18.68
2022-11-08T09:46:57.889Z,18.57
2022-11-08T09:48:16.322Z,18.40
2022-11-08T09:49:55.075Z,18.34
2022-11-08T09:51:13.822Z,18.23
2022-11-08T09:52:26.193Z,18.23
2022-11-08T09:53:55.750Z,18.16
2022-11-08T09:55:59.327Z,18.05
2022-11-08T09:57:06.391Z,17.96
2022-11-08T09:58:37.420Z,17.85
2022-11-08T09:59:53.468Z,17.79
2022-11-08T10:00:58.910Z,17.73
2022-11-08T10:02:04.298Z,17.71
2022-11-08T10:03:17.452Z,17.67
2022-11-08T10:04:30.275Z,17.62
2022-11-08T10:05:47.476Z,17.55
2022-11-08T10:07:17.373Z,17.43
2022-11-08T10:09:05.434Z,17.39
2022-11-08T10:10:39.472Z,17.20
2022-11-08T10:12:41.969Z,17.10
2022-11-08T10:13:57.352Z,16.97
2022-11-08T10:15:32.696Z,16.97
2022-11-08T10:17:34.860Z,16.91
2022-11-08T10:18:49.637Z,16.81
2022-11-08T10:20:17.569Z,16.81
2022-11-08T10:21:53.173Z,16.76
2022-11-08T10:23:21.896Z,16.72
2022-11-08T10:25:20.101Z,16.70
2022-11-08T10:26:35.781Z,16.74
2022-11-08T10:27:44.138Z,16.77
2022-11-08T10:28:58.687Z,16.76
2022-11-08T10:30:17.071Z,16.78
2022-11-08T10:31:22.679Z,16.73
2022-11-08T10:32:28.986Z,16.70
2022-11-08T10:33:51.596Z,16.71
2022-11-08T10:35:26.644Z,16.65
2022-11-08T10:36:48.442Z,16.59
2022-11-08T10:37:56.399Z,16.53
2022-11-08T10:39:25.292Z,16.54
2022-11-08T10:40:46.115Z,16.56
2022-11-08T10:42:20.269Z,16.57
2022-11-08T10:44:23.719Z,16.55
2022-11-08T10:45:28.620Z,16.53
2022-11-08T10:46:49.908Z,16.48
2022-11-08T10:47:55.433Z,16.47
2022-11-08T10:49:24.422Z,16.50
2022-11-08T10:50:44.774Z,16.54
2022-11-08T10:51:56.538Z,16.52
2022-11-08T10:53:06.242Z,16.48
2022-11-08T10:54:52.534Z,16.52
2022-11-08T10:56:04.461Z,16.51
2022-11-08T10:57:12.101Z,16.55
2022-11-08T10:58:43.075Z,16.58
2022-11-08T10:59:47.728Z,16.57
2022-11-08T11:01:17.598Z,16.55
2022-11-08T11:02:35.278Z,16.54
2022-11-08T11:03:39.863Z,16.54
2022-11-08T11:04:44.179Z,16.56
2022-11-08T11:06:04.408Z,16.58
2022-11-08T11:07:35.149Z,16.60
2022-11-08T11:08:56.449Z,16.64
2022-11-08T11:10:22.782Z,16.63
2022-11-08T11:11:32.309Z,16.64
2022-11-08T11:12:36.977Z,16.67
2022-11-08T11:13:41.279Z,16.73
2022-11-08T11:14:45.879Z,16.72
2022-11-08T11:16:06.041Z,16.74
2022-11-08T11:17:19.345Z,16.73
2022-11-08T11:18:34.138Z,16.77
2022-11-08T11:19:38.605Z,16.78
2022-11-08T11:20:43.967Z,16.66
2022-11-08T11:22:05.037Z,16.70
2022-11-08T11:23:12.254Z,16.76
2022-11-08T11:24:21.485Z,16.75
2022-11-08T11:25:26.541Z,16.71
2022-11-08T11:26:41.492Z,16.66
2022-11-08T11:27:57.053Z,16.69
2022-11-08T11:29:07.350Z,16.67
2022-11-08T11:30:35.810Z,16.74
2022-11-08T11:31:44.896Z,16.80
2022-11-08T11:33:26.189Z,16.80
2022-11-08T11:35:07.658Z,16.86
2022-11-08T11:36:20.856Z,16.85
2022-11-08T11:37:33.420Z,16.88
2022-11-08T11:39:11.344Z,16.89
2022-11-08T11:40:42.701Z,16.92
2022-11-08T11:42:39.037Z,16.93
2022-11-08T11:44:02.778Z,16.97
2022-11-08T11:45:06.582Z,16.99
2022-11-08T11:47:00.922Z,17.00
2022-11-08T11:48:17.962Z,17.05
2022-11-08T11:49:25.773Z,17.02
2022-11-08T11:50:40.318Z,17.03
2022-11-08T11:51:44.785Z,17.08
2022-11-08T11:52:52.310Z,17.12
2022-11-08T11:54:04.448Z,17.15
2022-11-08T11:55:14.964Z,17.18
2022-11-08T11:56:42.804Z,17.20
2022-11-08T11:58:40.674Z,17.20
2022-11-08T12:00:08.375Z,17.20
2022-11-08T12:01:39.933Z,17.21
2022-11-08T12:03:19.986Z,17.23
2022-11-08T12:04:55.514Z,17.22
2022-11-08T12:06:45.566Z,17.20
2022-11-08T12:08:25.406Z,17.17
2022-11-08T12:09:55.793Z,17.14
2022-11-08T12:11:46.711Z,17.15
2022-11-08T12:13:21.419Z,17.07
2022-11-08T12:15:42.434Z,17.11
2022-11-08T12:17:51.605Z,17.21
2022-11-08T12:19:29.880Z,17.16
2022-11-08T12:21:04.376Z,17.13
2022-11-08T12:22:48.221Z,17.18
2022-11-08T12:24:18.342Z,17.19
2022-11-08T12:26:12.153Z,17.21
2022-11-08T12:27:43.054Z,17.24
2022-11-08T12:28:53.028Z,17.28
2022-11-08T12:30:21.668Z,17.32
2022-11-08T12:31:50.732Z,17.38
2022-11-08T12:33:21.113Z,17.45
2022-11-08T12:34:54.960Z,17.44
2022-11-08T12:36:32.969Z,17.45
2022-11-08T12:38:00.987Z,17.50
2022-11-08T12:39:41.338Z,17.51
2022-11-08T12:41:03.617Z,17.50
2022-11-08T12:42:43.059Z,17.55
2022-11-08T12:44:22.039Z,17.60
2022-11-08T12:45:53.968Z,17.61
2022-11-08T12:47:10.553Z,17.63
2022-11-08T12:48:30.684Z,17.61
2022-11-08T12:50:01.425Z,17.58
2022-11-08T12:51:28.706Z,17.63
2022-11-08T12:53:34.685Z,17.62
2022-11-08T12:54:57.753Z,17.64
2022-11-08T12:56:05.785Z,17.62
2022-11-08T12:57:17.060Z,17.65
2022-11-08T12:58:47.493Z,17.69
2022-11-08T13:00:07.122Z,17.71
2022-11-08T13:01:19.334Z,17.75
2022-11-08T13:02:33.513Z,17.78
2022-11-08T13:03:44.332Z,17.77
2022-11-08T13:05:06.395Z,17.78
2022-11-08T13:06:18.617Z,17.78
2022-11-08T13:07:31.918Z,17.80
2022-11-08T13:08:51.476Z,17.83
2022-11-08T13:10:13.006Z,17.87
2022-11-08T13:11:41.873Z,17.88
2022-11-08T13:13:37.225Z,17.83
2022-11-08T13:14:42.403Z,17.86
2022-11-08T13:16:15.744Z,17.89
2022-11-08T13:17:26.836Z,17.91
2022-11-08T13:18:43.085Z,17.93
2022-11-08T13:19:49.641Z,17.98
2022-11-08T13:20:54.616Z,18.04
2022-11-08T13:21:58.846Z,18.14
2022-11-08T13:23:13.473Z,18.27
2022-11-08T13:24:43.318Z,18.49
2022-11-08T13:25:45.402Z,18.79
2022-11-08T13:26:50.278Z,18.95
2022-11-08T13:27:56.787Z,19.06
2022-11-08T13:29:19.050Z,19.18
2022-11-08T13:30:23.477Z,19.33
2022-11-08T13:31:58.853Z,19.55
2022-11-08T13:33:30.760Z,19.81
2022-11-08T13:35:09.710Z,20.00
2022-11-08T13:37:17.262Z,20.04
2022-11-08T13:38:45.676Z,19.88
2022-11-08T13:40:31.008Z,19.72
2022-11-08T13:42:25.227Z,19.47
2022-11-08T13:43:35.048Z,19.30
2022-11-08T13:44:58.571Z,19.20
2022-11-08T13:46:26.007Z,19.00
2022-11-08T13:47:36.936Z,18.84
2022-11-08T13:48:43.774Z,18.79
2022-11-08T13:49:48.015Z,18.76
2022-11-08T13:50:56.078Z,18.68
2022-11-08T13:52:47.713Z,18.58
2022-11-08T13:54:22.206Z,18.50
2022-11-08T13:55:55.951Z,18.42
2022-11-08T13:57:02.989Z,18.36
2022-11-08T13:58:40.260Z,18.33
2022-11-08T13:59:54.432Z,18.28
2022-11-08T14:01:00.692Z,18.24
2022-11-08T14:02:26.292Z,18.12
2022-11-08T14:03:33.142Z,18.10
2022-11-08T14:04:41.530Z,18.08
2022-11-08T14:05:49.668Z,18.07
2022-11-08T14:07:24.967Z,18.06
2022-11-08T14:09:01.852Z,18.01
2022-11-08T14:11:08.470Z,17.90
2022-11-08T14:12:50.451Z,17.90
2022-11-08T14:14:20.819Z,17.89
2022-11-08T14:15:51.928Z,17.85
2022-11-08T14:17:30.963Z,17.83
2022-11-08T14:18:39.393Z,17.75
2022-11-08T14:19:48.376Z,17.76
2022-11-08T14:20:55.177Z,17.74
2022-11-08T14:22:02.130Z,17.72
2022-11-08T14:23:21.303Z,17.70
2022-11-08T14:24:34.230Z,17.65
2022-11-08T14:25:40.661Z,17.64
2022-11-08T14:26:48.369Z,17.61
2022-11-08T14:27:52.753Z,17.60
2022-11-08T14:29:00.620Z,17.62
2022-11-08T14:30:26.343Z,17.59
2022-11-08T14:31:35.345Z,17.56
2022-11-08T14:32:39.789Z,17.55
2022-11-08T14:33:43.872Z,17.54
2022-11-08T14:34:47.886Z,17.52
2022-11-08T14:36:14.926Z,17.48
2022-11-08T14:37:27.932Z,17.47
2022-11-08T14:38:45.506Z,17.45
2022-11-08T14:39:51.086Z,17.42
2022-11-08T14:41:00.421Z,17.40
2022-11-08T14:42:19.454Z,17.37
2022-11-08T14:43:28.184Z,17.34
2022-11-08T14:44:32.689Z,17.31
2022-11-08T14:45:44.137Z,17.28
2022-11-08T14:46:49.862Z,17.26
2022-11-08T14:48:05.107Z,17.26
2022-11-08T14:49:23.411Z,17.22
2022-11-08T14:50:35.555Z,17.22
2022-11-08T14:51:41.020Z,17.19
2022-11-08T14:52:46.042Z,17.15
2022-11-08T14:53:56.921Z,17.14
2022-11-08T14:55:14.243Z,17.10
2022-11-08T14:56:26.022Z,17.08
2022-11-08T14:57:35.763Z,17.04
2022-11-08T14:58:40.790Z,17.01
2022-11-08T14:59:46.004Z,16.97
2022-11-08T15:00:50.353Z,16.92
2022-11-08T15:01:54.634Z,16.90
2022-11-08T15:03:05.873Z,16.87
2022-11-08T15:04:18.941Z,16.84
2022-11-08T15:05:38.990Z,16.77
2022-11-08T15:06:54.704Z,16.72
2022-11-08T15:08:00.998Z,16.68
2022-11-08T15:09:08.522Z,16.64
2022-11-08T15:10:13.808Z,16.62
2022-11-08T15:11:38.045Z,16.55
2022-11-08T15:12:44.031Z,16.52
2022-11-08T15:13:52.129Z,16.50
2022-11-08T15:15:01.549Z,16.45
2022-11-08T15:16:09.610Z,16.43
2022-11-08T15:17:39.070Z,16.40
2022-11-08T15:18:45.447Z,16.35
2022-11-08T15:19:50.485Z,16.33
2022-11-08T15:21:03.662Z,16.30
2022-11-08T15:22:34.391Z,16.24
2022-11-08T15:23:42.979Z,16.20
2022-11-08T15:24:48.050Z,16.17
2022-11-08T15:26:01.120Z,16.13
2022-11-08T15:27:11.223Z,16.10
2022-11-08T15:28:26.465Z,16.06
2022-11-08T15:29:49.532Z,16.00
2022-11-08T15:31:03.479Z,15.96
2022-11-08T15:32:20.999Z,15.93
2022-11-08T15:33:40.994Z,15.88
2022-11-08T15:34:47.287Z,15.84
2022-11-08T15:35:52.084Z,15.81
2022-11-08T15:36:56.084Z,15.79
2022-11-08T15:38:20.569Z,15.77
2022-11-08T15:39:44.835Z,15.73